Latest Coastal Weather Observations for Milingimbi

IDD60701

Issued at 11:21 pm CST Tuesday 24 May 2016 (issued every 10 minutes, with the page automatically refreshed every 10 minutes)

About coastal observations | Map of coastal stations | Coastal observations for NT | Marine services | Other Formats
Station Details ID: 014404 Name: MILINGIMBI AIRPORT Lat: -12.09 Lon: 134.89 Height: 15.0 m
Data from the previous 72 hours. | See also: Recent months at Milingimbi
Date/Time
CST
Temp

°C
Wind Pressure Rain
since 9am
mm
Weather Cloud Vis
km
Sea
Height
m
Swell
Dir
 
Speed
knots
Gust
knots
hPa Trend Height
m
Period
s
Dir
24/11:00pm 26.6 E 3 4 1012.8 - 0.0 - - - - - - -
24/10:30pm 26.6 E 3 4 1012.9 - 0.0 - - - - - - -
24/10:00pm 26.5 ENE 3 3 1012.9 - 0.0 - - - - - - -
24/09:30pm 26.5 NE 2 3 1012.8 - 0.0 - - - - - - -
24/09:00pm 26.5 CALM 0 0 1012.4 - 0.0 - - - - - - -
24/08:30pm 26.6 NE 2 4 1012.2 - 0.0 - - - - - - -
24/08:00pm 26.9 NNE 1 3 1011.8 - 0.0 - - - - - - -
24/07:30pm 27.3 CALM 0 3 1011.4 - 0.0 - - - - - - -
24/07:00pm 28.2 CALM 0 0 1011.0 - 0.0 - - - - - - -
24/06:30pm 28.9 N 4 6 1010.8 - 0.0 - - - - - - -
24/06:00pm 29.2 N 5 7 1010.5 - 0.0 - - - - - - -
24/05:30pm 30.0 N 6 10 1010.2 - 0.0 - - - - - - -
24/05:00pm 32.0 E 4 5 1009.8 - 0.0 - - - - - - -
24/04:30pm 33.0 E 6 8 1009.7 - 0.0 - - - - - - -
24/04:00pm 33.9 SE 5 9 1009.5 - 0.0 - - - - - - -
24/03:30pm 32.6 SE 6 8 1009.5 - 0.0 - - - - - - -
24/03:00pm 32.2 E 5 7 1009.5 - 0.0 - - - - - - -
24/02:30pm 33.3 E 5 9 1009.9 - 0.0 - - - - - - -
24/02:00pm 33.4 SSE 5 9 1010.3 - 0.0 - - - - - - -
24/01:30pm 33.5 E 6 9 1010.8 - 0.0 - - - - - - -
24/01:00pm 33.1 ESE 6 9 1011.6 - 0.0 - - - - - - -
24/12:30pm 32.6 E 7 10 1012.3 - 0.0 - - - - - - -
24/12:00pm 32.6 E 6 10 1012.8 - 0.0 - - - - - - -
24/11:30am 31.7 E 6 10 1013.3 - 0.0 - - - - - - -
24/11:00am 31.6 ESE 7 11 1013.6 - 0.0 - - - - - - -
24/10:30am 30.8 SE 7 11 1013.8 - 0.0 - - - - - - -
24/10:00am 30.3 SE 8 14 1014.0 - 0.0 - - - - - - -
24/09:30am 29.6 SE 8 11 1013.9 - 0.0 - - - - - - -
24/09:00am 28.1 SE 7 11 1013.6 - 0.0 - - - - - - -
24/08:30am 27.2 SSE 6 9 1013.4 - 0.0 - - - - - - -
24/08:00am 25.6 S 6 8 1013.1 - 0.0 - - - - - - -
24/07:30am 24.3 S 5 6 1012.8 - 0.0 - - - - - - -
24/07:00am 23.5 S 3 4 1012.3 - 0.0 - - - - - - -
24/06:30am 23.6 SSE 3 5 1012.1 - 0.0 - - - - - - -
24/06:00am 23.7 S 4 4 1011.8 - 0.0 - - - - - - -
24/05:30am 23.8 SSE 4 5 1011.6 - 0.0 - - - - - - -
24/05:00am 23.8 S 4 5 1011.5 - 0.0 - - - - - - -
24/04:30am 23.9 S 4 5 1011.5 - 0.0 - - - - - - -
24/04:00am 24.1 SSE 4 5 1011.5 - 0.0 - - - - - - -
24/03:30am 24.3 SSE 4 5 1011.5 - 0.0 - - - - - - -
24/03:00am 24.5 SSE 5 6 1011.5 - 0.0 - - - - - - -
24/02:30am 24.7 CALM 0 0 1012.0 - 0.0 - - - - - - -
24/02:00am 25.0 SE 5 7 1012.3 - 0.0 - - - - - - -
24/01:30am 25.2 SE 6 7 1012.6 - 0.0 - - - - - - -
24/01:00am 25.4 SSE 6 8 1012.6 - 0.0 - - - - - - -
24/12:30am 25.7 SSE 6 10 1012.7 - 0.0 - - - - - - -
24/12:00am 26.0 SSE 7 8 1012.6 - 0.0 - - - - - - -
 
Date/Time
CST
Temp

°C
Wind Pressure Rain
since 9am
mm
Weather Cloud Vis
km
Sea
Height
m
Swell
Dir
 
Speed
knots
Gust
knots
hPa Trend Height
m
Period
s
Dir
23/11:30pm 26.3 SSE 7 9 1012.8 - 0.0 - - - - - - -
23/11:00pm 26.8 SSE 7 10 1012.7 - 0.0 - - - - - - -
23/10:30pm 27.3 SSE 7 9 1012.7 - 0.0 - - - - - - -
23/10:00pm 28.1 SE 7 11 1012.5 - 0.0 - - - - - - -
23/09:30pm 28.1 SE 5 7 1012.0 - 0.0 - - - - - - -
23/09:00pm 28.5 SE 5 8 1011.8 - 0.0 - - - - - - -
23/08:30pm 28.9 ESE 5 8 1011.7 - 0.0 - - - - - - -
23/08:00pm 29.0 ESE 5 8 1011.5 - 0.0 - - - - - - -
23/07:30pm 29.1 ESE 5 7 1010.8 - 0.0 - - - - - - -
23/07:00pm 29.2 E 4 5 1010.6 - 0.0 - - - - - - -
23/06:30pm 29.2 E 4 6 1010.1 - 0.0 - - - - - - -
23/06:00pm 30.4 E 4 6 1009.9 - 0.0 - - - - - - -
23/05:30pm 31.5 E 5 8 1009.7 - 0.0 - - - - - - -
23/05:00pm 32.0 ESE 6 9 1009.3 - 0.0 - - - - - - -
23/04:30pm 32.3 E 7 13 1009.1 - 0.0 - - - - - - -
23/04:00pm 32.9 E 8 11 1009.0 - 0.0 - - - - - - -
23/03:30pm 32.4 E 8 14 1009.2 - 0.0 - - - - - - -
23/03:00pm 32.5 ESE 9 13 1009.2 - 0.0 - - - - - - -
23/02:30pm 32.4 E 8 11 1009.7 - 0.0 - - - - - - -
23/02:00pm 32.7 ESE 8 13 1010.1 - 0.0 - - - - - - -
23/01:30pm 32.3 E 8 15 1010.8 - 0.0 - - - - - - -
23/01:00pm 31.7 ESE 10 16 1011.4 - 0.0 - - - - - - -
23/12:30pm 31.0 ESE 11 17 1012.1 - 0.0 - - - - - - -
23/12:00pm 30.6 ESE 11 15 1012.5 - 0.0 - - - - - - -
23/11:30am 30.6 ESE 11 15 1013.0 - 0.0 - - - - - - -
23/11:00am 30.4 SSE 11 18 1013.5 - 0.0 - - - - - - -
23/10:30am 29.9 SSE 9 14 1013.7 - 0.0 - - - - - - -
23/10:00am 29.2 SSE 10 14 1013.9 - 0.0 - - - - - - -
23/09:30am 28.3 SSE 10 17 1014.2 - 0.0 - - - - - - -
23/09:00am 27.1 SSE 8 11 1014.1 - 0.0 - - - - - - -
23/08:30am 25.9 SSE 7 10 1014.0 - 0.0 - - - - - - -
23/08:00am 25.5 SSE 7 10 1013.6 - 0.0 - - - - - - -
23/07:30am 25.1 SSE 5 9 1013.2 - 0.0 - - - - - - -
23/07:00am 24.2 S 4 6 1013.1 - 0.0 - - - - - - -
23/06:30am 24.2 S 4 7 1012.7 - 0.0 - - - - - - -
23/06:00am 24.4 SSE 5 6 1012.2 - 0.0 - - - - - - -
23/05:30am 24.9 SE 7 10 1012.3 - 0.0 - - - - - - -
23/05:00am 24.9 SE 7 13 1012.1 - 0.0 - - - - - - -
23/04:30am 24.6 SSE 6 7 1011.6 - 0.0 - - - - - - -
23/04:00am 24.8 SSE 6 8 1011.3 - 0.0 - - - - - - -
23/03:30am 24.9 SSE 5 7 1011.5 - 0.0 - - - - - - -
23/03:00am 25.1 SSE 6 10 1011.4 - 0.0 - - - - - - -
23/02:30am 25.2 SSE 8 11 1011.5 - 0.0 - - - - - - -
23/02:00am 25.3 SE 6 8 1011.9 - 0.0 - - - - - - -
23/01:30am 25.4 SSE 6 8 1011.9 - 0.0 - - - - - - -
23/01:00am 25.6 SSE 8 11 1011.8 - 0.0 - - - - - - -
23/12:30am 25.6 SSE 7 9 1012.1 - 0.0 - - - - - - -
23/12:00am 25.5 SSE 5 6 1012.1 - 0.0 - - - - - - -
 
Date/Time
CST
Temp

°C
Wind Pressure Rain
since 9am
mm
Weather Cloud Vis
km
Sea
Height
m
Swell
Dir
 
Speed
knots
Gust
knots
hPa Trend Height
m
Period
s
Dir
22/11:30pm 25.9 SSE 6 8 1012.3 - 0.0 - - - - - - -
22/11:00pm 26.0 SSE 7 9 1012.3 - 0.0 - - - - - - -
22/10:30pm 26.2 SE 9 12 1012.3 - 0.0 - - - - - - -
22/10:08pm 27.6 SE 15 18 1012.4 - 0.0 - - - - - - -
22/10:00pm 27.8 E 4 6 1012.3 - 0.0 - - - - - - -
22/09:30pm 27.3 ENE 3 4 1012.2 - 0.0 - - - - - - -
22/09:00pm 27.1 ENE 3 4 1012.1 - 0.0 - - - - - - -
22/08:30pm 27.4 NE 1 4 1012.0 - 0.0 - - - - - - -
22/08:00pm 27.5 CALM 0 3 1011.7 - 0.0 - - - - - - -
22/07:30pm 27.9 NE 3 4 1011.4 - 0.0 - - - - - - -
22/07:00pm 28.2 NE 4 5 1011.3 - 0.0 - - - - - - -
22/06:30pm 28.4 CALM 0 0 1011.1 - 0.0 - - - - - - -
22/06:00pm 29.5 N 2 3 1010.7 - 0.0 - - - - - - -
22/05:30pm 30.5 NE 4 8 1010.7 - 0.0 - - - - - - -
22/05:00pm 31.0 NE 5 7 1010.5 - 0.0 - - - - - - -
22/04:30pm 31.4 ENE 6 9 1010.5 - 0.0 - - - - - - -
22/04:00pm 31.6 ENE 6 10 1010.5 - 0.0 - - - - - - -
22/03:30pm 31.5 NE 7 10 1010.5 - 0.0 - - - - - - -
22/03:00pm 31.5 NE 7 10 1010.6 - 0.0 - - - - - - -
22/02:30pm 31.9 ENE 6 11 1011.0 - 0.0 - - - - - - -
22/02:00pm 31.5 E 4 8 1011.5 - 0.0 - - - - - - -
22/01:30pm 31.2 ENE 6 9 1011.9 - 0.0 - - - - - - -
22/01:00pm 31.7 E 5 9 1012.3 - 0.0 - - - - - - -
22/12:30pm 31.2 E 5 9 1012.8 - 0.0 - - - - - - -
22/12:00pm 30.5 E 7 11 1012.9 - 0.0 - - - - - - -
22/11:30am 30.2 E 7 12 1013.4 - 0.0 - - - - - - -
22/11:00am 30.0 ESE 8 12 1013.4 - 0.0 - - - - - - -
22/10:30am 30.3 ESE 9 12 1013.6 - 0.0 - - - - - - -
22/10:00am 29.8 SE 9 13 1013.7 - 0.0 - - - - - - -
22/09:30am 29.2 SE 8 11 1013.6 - 0.0 - - - - - - -
22/09:00am 28.0 SE 7 10 1013.4 - 0.0 - - - - - - -
22/08:30am 27.0 SSE 6 11 1013.4 - 0.0 - - - - - - -
22/08:00am 25.8 S 6 9 1013.5 - 0.0 - - - - - - -
22/07:30am 24.7 S 5 8 1013.2 - 0.0 - - - - - - -
22/07:00am 24.0 S 4 5 1012.9 - 0.0 - - - - - - -
22/06:30am 24.0 S 5 6 1012.8 - 0.0 - - - - - - -
22/06:00am 24.1 S 5 7 1012.4 - 0.0 - - - - - - -
22/05:30am 24.1 S 5 7 1012.5 - 0.0 - - - - - - -
22/05:00am 24.2 S 5 6 1012.3 - 0.0 - - - - - - -
22/04:30am 24.3 SSE 6 8 1011.9 - 0.0 - - - - - - -
22/04:00am 24.3 SE 5 7 1011.7 - 0.0 - - - - - - -
22/03:30am 24.3 SSE 6 8 1011.5 - 0.0 - - - - - - -
22/03:00am 24.6 SSE 5 8 1011.5 - 0.0 - - - - - - -
22/02:30am 24.5 SSE 6 8 1011.7 - 0.0 - - - - - - -
22/02:00am 24.3 S 5 7 1011.9 - 0.0 - - - - - - -
22/01:30am 24.4 S 6 8 1011.7 - 0.0 - - - - - - -
22/01:00am 24.5 SSE 5 6 1011.9 - 0.0 - - - - - - -
22/12:30am 24.8 SSE 4 5 1012.2 - 0.0 - - - - - - -
22/12:00am 25.2 SSE 5 6 1012.3 - 0.0 - - - - - - -
 
Date/Time
CST
Temp

°C
Wind Pressure Rain
since 9am
mm
Weather Cloud Vis
km
Sea
Height
m
Swell
Dir
 
Speed
knots
Gust
knots
hPa Trend Height
m
Period
s
Dir
21/11:30pm 25.2 SE 5 7 1012.7 - 0.0 - - - - - - -

Other Formats:

Comma delimited format used in spreadsheet applications
http://www.bom.gov.au/fwo/IDD60701/IDD60701.94140.axf

JavaScript Object Notation format (JSON) in row-major order
http://www.bom.gov.au/fwo/IDD60701/IDD60701.94140.json